Time;durP1;ratioP1;P1;durP2;ratioP2;P2;SDS_P1;SDS_P2;PMS_P1;PMS_P2;Temp;Humidity;BMP_temperature;BMP_pressure;BME280_temperature;BME280_humidity;BME280_pressure;Samples;Min_cycle;Max_cycle;Signal;HPM_P1;HPM_P2
2023/10/07 00:00:32;;;;;;;6.80;3.77;;;;;;;17.41;55.33;97902.22;5048605;28;20202;-81
2023/10/07 00:03:00;;;;;;;6.03;3.13;;;;;;;17.30;54.94;97888.06;5049739;28;20202;-84
2023/10/07 00:05:32;;;;;;;9.27;3.30;;;;;;;17.27;54.51;97891.69;5048956;28;20639;-83
2023/10/07 00:08:20;;;;;;;8.40;3.60;;;;;;;17.24;54.46;97889.28;5049422;28;20275;-77
2023/10/07 00:10:49;;;;;;;9.70;4.07;;;;;;;17.15;54.63;97879.34;5049393;28;20191;-74
2023/10/07 00:13:20;;;;;;;6.67;3.80;;;;;;;17.38;54.13;97888.44;5048376;28;20200;-82
2023/10/07 00:15:50;;;;;;;8.67;3.77;;;;;;;17.28;54.23;97890.78;5049439;28;20214;-74
2023/10/07 00:18:22;;;;;;;8.13;3.60;;;;;;;17.12;54.80;97889.16;5048141;28;20234;-81
2023/10/07 00:20:53;;;;;;;7.70;4.30;;;;;;;17.22;55.27;97878.06;5049223;28;20211;-78
2023/10/07 00:23:22;;;;;;;8.57;4.00;;;;;;;17.15;56.30;97883.72;5048801;28;20225;-82
2023/10/07 00:25:51;;;;;;;6.20;3.40;;;;;;;17.00;54.78;97881.06;5048393;28;20261;-83
2023/10/07 00:28:27;;;;;;;8.90;3.30;;;;;;;16.99;54.98;97874.16;5049283;28;20226;-82
2023/10/07 00:31:02;;;;;;;6.77;3.90;;;;;;;16.83;55.07;97875.13;5048040;28;20718;-81
2023/10/07 00:33:50;;;;;;;6.13;3.50;;;;;;;16.44;55.64;97882.56;5047915;28;20601;-80
2023/10/07 00:39:07;;;;;;;6.57;3.90;;;;;;;16.51;56.30;97879.56;5046802;28;20198;-81
2023/10/07 00:41:39;;;;;;;7.43;3.30;;;;;;;16.54;55.61;97871.56;5047734;28;20238;-84
2023/10/07 00:44:22;;;;;;;7.37;4.00;;;;;;;16.64;55.52;97875.34;5047679;28;20212;-86
2023/10/07 00:49:29;;;;;;;7.40;3.60;;;;;;;16.46;56.07;97868.50;5048781;28;20283;-83
2023/10/07 00:51:58;;;;;;;6.43;3.27;;;;;;;16.58;55.50;97883.53;5048064;28;20226;-81
2023/10/07 00:54:44;;;;;;;9.40;3.40;;;;;;;16.56;55.05;97885.38;5049190;28;20200;-71
2023/10/07 00:57:24;;;;;;;6.00;3.07;;;;;;;16.32;55.42;97878.88;5047681;28;20204;-70
2023/10/07 00:59:53;;;;;;;5.77;3.50;;;;;;;16.21;56.05;97878.63;5048519;28;20205;-70
2023/10/07 01:02:29;;;;;;;6.83;3.23;;;;;;;16.29;56.53;97866.81;5048429;28;20976;-72
2023/10/07 01:05:09;;;;;;;6.03;3.40;;;;;;;16.25;55.83;97870.53;5046511;28;20552;-71
2023/10/07 01:07:37;;;;;;;8.37;4.03;;;;;;;16.18;56.76;97861.34;5048366;28;20198;-71
2023/10/07 01:12:39;;;;;;;8.10;4.20;;;;;;;15.99;57.51;97852.81;5048372;28;20214;-71
2023/10/07 01:15:40;;;;;;;6.40;3.10;;;;;;;15.79;57.96;97855.66;5048155;28;20202;-71
2023/10/07 01:18:05;;;;;;;5.40;3.43;;;;;;;15.75;58.04;97855.88;5046847;28;20238;-72
2023/10/07 01:23:23;;;;;;;8.10;4.40;;;;;;;15.76;57.93;97845.38;5047048;28;20209;-71
2023/10/07 01:25:51;;;;;;;5.43;3.57;;;;;;;15.65;58.23;97852.94;5047781;28;20195;-71
2023/10/07 01:28:20;;;;;;;8.07;3.83;;;;;;;15.71;57.97;97857.81;5047548;28;20230;-73
2023/10/07 01:31:18;;;;;;;7.90;4.20;;;;;;;15.60;58.57;97844.47;5045968;28;20201;-73
2023/10/07 01:38:52;;;;;;;8.87;4.23;;;;;;;14.63;60.85;97833.81;5046277;28;20230;-74
2023/10/07 01:41:22;;;;;;;11.63;3.87;;;;;;;14.81;61.33;97842.50;5047845;28;20209;-74
2023/10/07 01:44:00;;;;;;;7.57;4.27;;;;;;;14.81;61.61;97849.47;5045461;28;20206;-77
2023/10/07 01:46:32;;;;;;;9.27;4.00;;;;;;;14.72;61.83;97844.69;5046404;28;20197;-73
2023/10/07 01:49:04;;;;;;;6.97;3.90;;;;;;;14.57;62.84;97852.34;5047004;28;20257;-71
2023/10/07 01:51:31;;;;;;;7.07;4.20;;;;;;;14.56;62.74;97845.47;5047495;28;20650;-71
2023/10/07 01:54:03;;;;;;;8.00;4.00;;;;;;;14.53;63.43;97845.59;5047304;28;20198;-70
2023/10/07 01:56:32;;;;;;;4.93;4.20;;;;;;;14.52;63.33;97856.13;5047079;28;20210;-71
2023/10/07 02:01:58;;;;;;;6.73;4.53;;;;;;;14.22;64.42;97855.78;5044872;28;20202;-71
2023/10/07 02:04:28;;;;;;;6.10;4.00;;;;;;;13.88;65.95;97853.06;5047362;28;20709;-70
2023/10/07 02:06:56;;;;;;;9.43;5.70;;;;;;;13.78;66.25;97855.25;5047034;28;20194;-71
2023/10/07 02:09:25;;;;;;;9.07;5.10;;;;;;;13.58;67.01;97844.03;5046626;28;20235;-70
2023/10/07 02:11:58;;;;;;;7.67;4.80;;;;;;;13.68;67.03;97850.53;5046161;28;20301;-72
2023/10/07 02:14:25;;;;;;;7.40;4.97;;;;;;;13.63;66.78;97842.06;5045942;28;20219;-70
2023/10/07 02:16:56;;;;;;;12.93;5.90;;;;;;;13.52;67.05;97846.88;5045923;28;20859;-75
2023/10/07 02:19:28;;;;;;;9.13;5.40;;;;;;;13.78;66.41;97846.59;5044460;28;20585;-76
2023/10/07 02:22:22;;;;;;;8.47;6.20;;;;;;;13.87;65.92;97849.59;5045428;28;20218;-70
2023/10/07 02:25:02;;;;;;;11.67;5.73;;;;;;;13.70;67.23;97841.69;5045863;28;20204;-70
2023/10/07 02:27:41;;;;;;;10.17;5.57;;;;;;;13.85;66.01;97841.00;5045934;28;20233;-76
2023/10/07 02:30:19;;;;;;;11.43;7.40;;;;;;;13.84;66.30;97846.31;5047162;28;20277;-71
2023/10/07 02:32:48;;;;;;;7.93;4.97;;;;;;;13.71;66.30;97834.75;5046461;28;20679;-72
2023/10/07 02:35:19;;;;;;;10.23;5.10;;;;;;;13.95;66.33;97854.44;5046228;28;20268;-70
2023/10/07 02:37:50;;;;;;;8.47;5.53;;;;;;;14.08;65.57;97839.94;5045635;28;20197;-77
2023/10/07 02:40:48;;;;;;;7.87;4.83;;;;;;;14.13;65.45;97851.00;5045967;28;20287;-77
2023/10/07 02:43:16;;;;;;;9.17;6.63;;;;;;;14.26;64.87;97853.88;5045639;28;20681;-73
2023/10/07 02:45:43;;;;;;;7.57;5.30;;;;;;;14.39;64.40;97845.44;5046351;28;20197;-73
2023/10/07 02:48:11;;;;;;;8.37;5.10;;;;;;;14.35;64.22;97853.47;5045163;28;20263;-76
2023/10/07 02:50:42;;;;;;;7.90;5.10;;;;;;;14.43;64.14;97852.19;5046855;28;20684;-74
2023/10/07 02:53:14;;;;;;;9.10;5.03;;;;;;;14.44;63.86;97850.44;5044606;28;20537;-75
2023/10/07 02:55:48;;;;;;;8.27;4.97;;;;;;;14.48;64.05;97846.75;5046874;28;20270;-70
2023/10/07 02:58:32;;;;;;;12.67;6.27;;;;;;;14.52;64.31;97837.88;5046043;28;20201;-71
2023/10/07 03:01:11;;;;;;;9.77;5.13;;;;;;;14.73;63.39;97849.00;5046445;28;20268;-70
2023/10/07 03:03:40;;;;;;;9.37;5.60;;;;;;;14.74;62.98;97830.66;5046748;28;20197;-71
2023/10/07 03:06:08;;;;;;;11.53;5.57;;;;;;;14.62;63.36;97834.75;5045822;28;20285;-71
2023/10/07 03:11:20;;;;;;;9.23;4.70;;;;;;;14.85;63.08;97843.19;5045680;28;20663;-70
2023/10/07 03:13:50;;;;;;;8.87;4.93;;;;;;;14.89;62.48;97836.88;5046822;28;20260;-74
2023/10/07 03:21:55;;;;;;;9.03;5.97;;;;;;;15.16;61.31;97838.09;5046519;28;20238;-71
2023/10/07 03:24:29;;;;;;;7.30;5.50;;;;;;;15.06;61.17;97835.13;5046170;28;20202;-73
2023/10/07 03:27:11;;;;;;;9.07;5.53;;;;;;;15.02;61.88;97845.78;5044459;28;20266;-71
2023/10/07 03:29:45;;;;;;;11.13;5.53;;;;;;;14.90;61.89;97846.41;5025313;28;20303;-70
2023/10/07 03:32:12;;;;;;;6.77;4.50;;;;;;;14.79;62.26;97846.09;5027318;28;20186;-73
2023/10/07 03:34:45;;;;;;;6.73;4.67;;;;;;;14.77;62.23;97855.75;5029057;28;20675;-73
2023/10/07 03:42:25;;;;;;;7.40;5.03;;;;;;;14.74;62.10;97848.06;5030216;28;20214;-71
2023/10/07 03:44:53;;;;;;;6.17;4.27;;;;;;;14.66;62.47;97843.25;5029231;28;20296;-72
2023/10/07 03:47:20;;;;;;;9.97;4.13;;;;;;;14.41;62.74;97848.81;5030204;28;20203;-74
2023/10/07 03:49:52;;;;;;;7.97;4.53;;;;;;;14.15;63.45;97840.50;5027564;28;20315;-83
2023/10/07 03:52:21;;;;;;;7.17;4.60;;;;;;;13.78;64.38;97837.03;5028568;28;20237;-73
2023/10/07 03:54:48;;;;;;;7.60;4.70;;;;;;;13.66;64.87;97845.34;5029321;28;20292;-81
2023/10/07 03:57:16;;;;;;;7.33;4.77;;;;;;;13.41;65.70;97844.78;5029273;28;20198;-73
2023/10/07 03:59:45;;;;;;;10.33;5.40;;;;;;;13.53;65.61;97844.25;5029722;28;20269;-73
2023/10/07 04:05:15;;;;;;;12.33;5.33;;;;;;;13.95;64.61;97840.59;5029737;28;20209;-77
2023/10/07 04:07:43;;;;;;;7.43;4.63;;;;;;;13.80;65.38;97855.16;5028905;28;20545;-85
2023/10/07 04:12:48;;;;;;;11.10;4.73;;;;;;;13.85;66.11;97848.81;5029594;28;20205;-77
2023/10/07 04:15:27;;;;;;;8.23;4.53;;;;;;;13.89;65.52;97846.91;5028451;28;20209;-80
2023/10/07 04:17:57;;;;;;;9.27;4.47;;;;;;;13.65;66.55;97837.63;5029411;28;20237;-70
2023/10/07 04:20:42;;;;;;;8.43;4.87;;;;;;;13.85;66.01;97851.44;5028650;28;20200;-71
2023/10/07 04:23:09;;;;;;;8.87;4.70;;;;;;;13.75;66.33;97847.56;5028995;28;20663;-72
2023/10/07 04:25:43;;;;;;;8.07;4.80;;;;;;;13.71;67.55;97845.16;5029201;28;20206;-74
2023/10/07 04:28:13;;;;;;;9.10;4.57;;;;;;;13.58;68.29;97849.25;5028083;28;20208;-71
2023/10/07 04:30:46;;;;;;;6.43;4.20;;;;;;;13.52;69.15;97852.09;5029010;28;20230;-71
2023/10/07 04:33:17;;;;;;;7.17;4.77;;;;;;;13.46;69.14;97841.97;5028106;28;20255;-70
2023/10/07 04:35:50;;;;;;;9.83;4.90;;;;;;;13.65;68.62;97851.50;5028954;28;20269;-71
2023/10/07 04:43:36;;;;;;;7.60;5.07;;;;;;;13.46;69.52;97854.97;5048285;28;20204;-72
2023/10/07 04:46:21;;;;;;;6.97;4.20;;;;;;;13.39;70.30;97856.16;5047786;28;20214;-71
2023/10/07 04:48:56;;;;;;;8.40;4.70;;;;;;;13.22;71.16;97854.31;5048362;28;20187;-76
2023/10/07 04:51:46;;;;;;;9.73;5.00;;;;;;;13.14;71.49;97845.13;5048527;28;20612;-71
2023/10/07 04:54:13;;;;;;;8.47;5.10;;;;;;;13.33;71.53;97857.28;5047503;28;20205;-74
2023/10/07 04:56:40;;;;;;;7.50;4.97;;;;;;;13.38;71.75;97862.28;5048708;28;20202;-70
2023/10/07 04:59:09;;;;;;;12.27;5.37;;;;;;;13.40;71.53;97855.25;5047355;28;20213;-71
2023/10/07 05:01:41;;;;;;;8.13;4.87;;;;;;;13.30;71.51;97840.94;5047748;28;20205;-76
2023/10/07 05:04:15;;;;;;;12.20;4.73;;;;;;;13.59;70.77;97846.56;5047887;28;20233;-71
2023/10/07 05:06:43;;;;;;;10.67;5.10;;;;;;;13.74;70.34;97855.44;5047479;28;20210;-71
2023/10/07 05:09:11;;;;;;;9.47;5.37;;;;;;;13.94;69.84;97871.00;5048199;28;20223;-71
2023/10/07 05:11:43;;;;;;;9.23;5.70;;;;;;;13.95;69.29;97869.25;5047825;28;20673;-70
2023/10/07 05:14:10;;;;;;;13.07;5.53;;;;;;;13.94;69.38;97873.59;5050401;28;20197;-79
2023/10/07 05:16:38;;;;;;;9.23;5.20;;;;;;;14.19;69.01;97870.72;5048859;28;20192;-79
2023/10/07 05:19:09;;;;;;;10.30;5.23;;;;;;;14.37;68.39;97870.72;5047579;28;20315;-73
2023/10/07 05:21:39;;;;;;;7.57;5.13;;;;;;;14.61;66.80;97872.13;5048203;28;20224;-76
2023/10/07 05:24:09;;;;;;;9.57;5.53;;;;;;;14.62;66.40;97880.81;5047372;28;20198;-71
2023/10/07 05:26:40;;;;;;;9.10;5.70;;;;;;;14.65;66.16;97875.47;5048275;28;20571;-73
2023/10/07 05:29:12;;;;;;;8.50;5.40;;;;;;;14.81;66.16;97878.16;5047891;28;20220;-70
2023/10/07 05:31:42;;;;;;;10.27;5.50;;;;;;;14.49;65.40;97841.47;5047824;28;20718;-69
2023/10/07 05:34:10;;;;;;;12.03;6.70;;;;;;;14.95;65.38;97880.91;5047717;28;20297;-77
2023/10/07 05:36:38;;;;;;;9.57;4.87;;;;;;;15.16;65.08;97883.31;5054187;28;20224;-73
2023/10/07 05:39:08;;;;;;;10.40;5.33;;;;;;;15.26;64.21;97884.53;5049095;28;20213;-70
2023/10/07 05:41:39;;;;;;;7.77;5.23;;;;;;;15.20;64.39;97890.06;5045323;28;20296;-70
2023/10/07 05:44:08;;;;;;;11.53;6.80;;;;;;;15.29;63.90;97883.53;5047129;28;20662;-76
2023/10/07 05:46:36;;;;;;;8.93;5.53;;;;;;;15.52;63.22;97878.00;5046563;28;20275;-76
2023/10/07 05:49:04;;;;;;;9.37;5.23;;;;;;;15.71;62.64;97883.94;5047321;28;20202;-72
2023/10/07 05:51:32;;;;;;;10.23;5.30;;;;;;;15.72;62.30;97879.56;5039927;28;20283;-76
2023/10/07 05:54:00;;;;;;;9.47;5.70;;;;;;;15.89;61.96;97880.34;5035508;28;20198;-75
2023/10/07 05:56:27;;;;;;;9.03;5.50;;;;;;;16.20;61.10;97883.00;5046680;28;20236;-72
2023/10/07 05:58:54;;;;;;;14.07;6.13;;;;;;;16.51;60.87;97889.16;5046084;28;20245;-82
2023/10/07 06:01:22;;;;;;;16.10;6.07;;;;;;;16.74;59.72;97884.34;5046870;28;20677;-71
2023/10/07 06:03:52;;;;;;;10.10;5.40;;;;;;;16.84;59.79;97874.19;5045612;28;20622;-73
2023/10/07 06:06:20;;;;;;;7.63;5.43;;;;;;;16.99;59.24;97875.94;5046406;28;20191;-78
2023/10/07 06:08:48;;;;;;;8.77;5.53;;;;;;;16.89;59.63;97873.00;5046372;28;20195;-87
2023/10/07 06:11:16;;;;;;;10.67;5.17;;;;;;;16.89;59.52;97880.88;5046090;28;20231;-88
2023/10/07 06:13:44;;;;;;;15.03;6.37;;;;;;;17.10;59.84;97889.25;5046941;28;20225;-81
2023/10/07 06:16:13;;;;;;;7.80;5.73;;;;;;;17.19;59.18;97883.47;5047316;28;20207;-83
2023/10/07 06:18:41;;;;;;;8.23;5.20;;;;;;;17.22;59.37;97890.28;5047235;28;20244;-88
2023/10/07 06:21:27;;;;;;;7.00;5.23;;;;;;;17.35;59.23;97876.38;5048119;28;20679;-82
2023/10/07 06:23:58;;;;;;;9.47;5.20;;;;;;;17.62;59.38;97879.19;5053364;28;20199;-84
2023/10/07 06:27:20;;;;;;;8.63;5.17;;;;;;;17.44;60.04;97867.13;5062440;28;20199;-82
2023/10/07 06:30:00;;;;;;;11.67;5.60;;;;;;;17.72;59.95;97873.25;5054660;28;20231;-88
2023/10/07 06:32:43;;;;;;;10.40;5.13;;;;;;;17.54;60.04;97882.25;5056047;28;20291;-81
2023/10/07 06:35:21;;;;;;;11.10;5.53;;;;;;;17.82;59.75;97871.78;5056208;28;20663;-88
2023/10/07 06:37:50;;;;;;;7.90;5.50;;;;;;;18.03;58.97;97876.63;5058002;28;20189;-87
2023/10/07 06:40:29;;;;;;;9.87;6.77;;;;;;;17.84;59.41;97854.19;5047823;28;20196;-70
2023/10/07 06:42:58;;;;;;;15.60;7.20;;;;;;;17.92;59.17;97865.97;5045756;28;20203;-70
2023/10/07 06:45:36;;;;;;;16.27;7.10;;;;;;;18.20;58.89;97871.16;5046244;28;20212;-74
2023/10/07 06:48:09;;;;;;;15.03;6.77;;;;;;;18.13;57.91;97809.59;5046587;28;20208;-78
2023/10/07 06:50:41;;;;;;;10.63;6.03;;;;;;;18.74;57.87;97875.53;5045801;28;20238;-84
2023/10/07 06:53:12;;;;;;;11.13;6.87;;;;;;;18.92;57.17;97879.59;5046373;28;20200;-70
2023/10/07 06:55:43;;;;;;;13.60;5.80;;;;;;;19.04;57.68;97884.03;5045889;28;20197;-71
2023/10/07 06:58:11;;;;;;;10.07;5.40;;;;;;;19.08;57.76;97869.75;5046599;28;20558;-73
2023/10/07 07:00:47;;;;;;;12.67;5.40;;;;;;;19.21;57.07;97878.50;5044386;28;20761;-71
2023/10/07 07:03:54;;;;;;;8.60;4.80;;;;;;;18.90;58.38;97884.09;5045322;28;20209;-73
2023/10/07 07:07:18;;;;;;;8.80;4.90;;;;;;;19.01;58.97;97876.38;5050936;28;20665;-72
2023/10/07 07:10:41;;;;;;;11.60;5.43;;;;;;;19.31;58.60;97874.31;5051435;28;20616;-79
2023/10/07 07:14:02;;;;;;;8.53;5.20;;;;;;;19.22;59.24;97871.47;5048341;28;20238;-73
2023/10/07 07:17:29;;;;;;;8.53;4.60;;;;;;;19.38;59.22;97869.53;5049016;28;20300;-78
2023/10/07 07:21:36;;;;;;;8.90;4.87;;;;;;;19.64;58.58;97859.88;5049321;28;20492;-78
2023/10/07 07:24:36;;;;;;;10.53;5.50;;;;;;;19.82;58.94;97864.69;5048712;28;20291;-74
2023/10/07 07:28:00;;;;;;;8.27;4.63;;;;;;;19.31;61.82;97874.31;5063940;28;20245;-70
2023/10/07 07:31:25;;;;;;;10.27;4.83;;;;;;;19.58;61.76;97873.44;5046413;28;20282;-78
2023/10/07 07:34:46;;;;;;;9.70;4.53;;;;;;;19.80;61.55;97871.00;5040071;28;20222;-78
2023/10/07 07:39:10;;;;;;;11.27;4.50;;;;;;;20.18;61.32;97867.38;5028758;28;20194;-80
2023/10/07 07:42:15;;;;;;;8.23;4.00;;;;;;;20.63;60.68;97863.25;5023966;28;20202;-78
2023/10/07 07:45:36;;;;;;;6.90;4.50;;;;;;;20.48;59.74;97864.38;5027956;28;20303;-74
2023/10/07 07:49:05;;;;;;;8.10;4.30;;;;;;;20.42;59.92;97869.22;5032069;28;20191;-83
2023/10/07 07:52:27;;;;;;;10.97;4.20;;;;;;;20.75;58.88;97857.06;5028409;28;20217;-73
2023/10/07 07:55:48;;;;;;;11.37;6.20;;;;;;;20.83;58.29;97848.63;5028261;28;20205;-75
2023/10/07 07:59:15;;;;;;;7.87;4.13;;;;;;;20.91;57.39;97831.31;5029003;28;20742;-85
2023/10/07 08:02:36;;;;;;;8.17;4.03;;;;;;;21.05;56.02;97846.94;5028273;28;20200;-86
2023/10/07 08:05:56;;;;;;;6.17;4.57;;;;;;;21.08;56.02;97853.78;5028478;28;20295;-85
2023/10/07 08:08:38;;;;;;;5.30;3.73;;;;;;;20.99;55.17;97836.84;5025884;28;20199;-86
2023/10/07 08:11:05;;;;;;;7.37;4.03;;;;;;;21.01;56.03;97852.53;5029022;28;20713;-84
2023/10/07 08:14:12;;;;;;;7.27;4.27;;;;;;;20.75;57.17;97836.00;5028152;28;20486;-80
2023/10/07 08:16:51;;;;;;;8.60;4.33;;;;;;;20.69;56.17;97833.00;5025899;28;20195;-72
2023/10/07 08:19:20;;;;;;;10.33;4.80;;;;;;;20.76;56.81;97836.84;5056662;28;20573;-80
2023/10/07 08:21:51;;;;;;;12.63;4.80;;;;;;;21.05;56.30;97835.56;5046659;28;20203;-83
2023/10/07 08:24:22;;;;;;;13.77;4.90;;;;;;;21.27;55.29;97827.72;5034548;28;20261;-88
2023/10/07 08:26:56;;;;;;;11.67;5.43;;;;;;;21.45;54.80;97828.94;5032418;28;20300;-87
2023/10/07 08:29:33;;;;;;;9.63;5.00;;;;;;;21.48;54.48;97830.50;5047862;28;20225;-83
2023/10/07 08:32:14;;;;;;;8.03;4.60;;;;;;;21.66;54.02;97826.44;5039135;28;20232;-85
2023/10/07 08:34:47;;;;;;;9.10;5.13;;;;;;;21.63;53.40;97824.06;5046507;28;20203;-73
2023/10/07 08:37:16;;;;;;;8.50;4.90;;;;;;;21.57;53.60;97824.53;5048851;28;20202;-70
2023/10/07 08:39:46;;;;;;;8.57;5.47;;;;;;;21.48;53.46;97818.16;5046473;28;20241;-86
2023/10/07 08:42:24;;;;;;;8.00;4.90;;;;;;;21.63;53.66;97821.41;5063691;28;20703;-81
2023/10/07 08:44:58;;;;;;;10.10;5.30;;;;;;;21.84;53.51;97811.88;5047910;28;20230;-79
2023/10/07 08:47:27;;;;;;;11.47;6.50;;;;;;;21.71;53.42;97800.56;5047032;28;20200;-80
2023/10/07 08:49:56;;;;;;;9.20;4.97;;;;;;;22.07;52.88;97795.03;5046371;28;20259;-72
2023/10/07 08:52:29;;;;;;;9.53;5.40;;;;;;;22.03;52.20;97806.81;5047100;28;20605;-82
2023/10/07 08:54:56;;;;;;;8.93;5.43;;;;;;;21.79;52.54;97798.16;5047940;28;20197;-79
2023/10/07 08:57:25;;;;;;;7.60;4.87;;;;;;;21.93;52.96;97800.59;5044856;28;20237;-84
2023/10/07 08:59:54;;;;;;;9.77;5.23;;;;;;;22.21;51.83;97799.22;5051423;28;20696;-81
2023/10/07 09:02:27;;;;;;;9.50;6.60;;;;;;;22.10;51.86;97794.81;5044255;28;20276;-81
2023/10/07 09:04:58;;;;;;;8.00;5.37;;;;;;;22.16;52.09;97796.97;5042818;28;20199;-72
2023/10/07 09:07:32;;;;;;;9.13;5.27;;;;;;;22.20;51.88;97795.75;5027796;28;20207;-72
2023/10/07 09:10:08;;;;;;;10.97;7.20;;;;;;;22.33;50.62;97793.81;5044513;28;20232;-88
2023/10/07 09:12:45;;;;;;;8.67;5.47;;;;;;;22.07;51.50;97767.84;5047937;28;20200;-75
2023/10/07 09:15:25;;;;;;;8.57;5.60;;;;;;;21.84;51.54;97785.50;5030950;28;20204;-81
2023/10/07 09:18:03;;;;;;;10.40;5.33;;;;;;;21.84;51.61;97780.22;5026810;28;20768;-78
2023/10/07 09:20:32;;;;;;;11.57;6.03;;;;;;;22.14;50.54;97788.31;5026795;28;20218;-78
2023/10/07 09:23:23;;;;;;;7.90;4.93;;;;;;;22.04;49.84;97781.25;5027062;28;20209;-72
2023/10/07 09:25:54;;;;;;;10.60;6.10;;;;;;;21.96;49.78;97768.69;5031024;28;20295;-71
2023/10/07 09:28:35;;;;;;;9.60;6.63;;;;;;;22.01;49.55;97761.25;5043032;28;20691;-86
2023/10/07 09:31:06;;;;;;;9.23;5.47;;;;;;;21.71;50.71;97750.47;5041239;28;20232;-86
2023/10/07 09:33:37;;;;;;;9.33;5.37;;;;;;;21.54;51.00;97757.06;5044960;28;20205;-85
2023/10/07 09:41:36;;;;;;;8.67;5.30;;;;;;;21.67;50.15;97757.78;5027220;28;20691;-76
2023/10/07 09:44:12;;;;;;;10.23;5.53;;;;;;;21.98;49.91;97758.00;5026157;28;20547;-84
2023/10/07 09:46:40;;;;;;;9.73;6.23;;;;;;;22.13;49.87;97752.38;5025197;28;20671;-84
2023/10/07 09:49:08;;;;;;;8.93;6.20;;;;;;;21.99;49.73;97742.06;5027156;28;20216;-88
2023/10/07 09:51:47;;;;;;;8.77;5.90;;;;;;;22.31;49.04;97737.66;5026203;28;20310;-75
2023/10/07 09:54:47;;;;;;;8.23;5.17;;;;;;;22.22;48.68;97738.41;5025241;28;20219;-84
2023/10/07 09:57:29;;;;;;;7.43;5.47;;;;;;;22.34;48.05;97731.31;5026353;28;20284;-80
2023/10/07 10:00:26;;;;;;;7.97;5.33;;;;;;;22.48;47.74;97723.91;5025839;28;20238;-78
2023/10/07 10:03:39;;;;;;;7.57;4.97;;;;;;;22.64;47.30;97707.69;5026340;28;20235;-78
2023/10/07 10:06:16;;;;;;;7.93;5.57;;;;;;;22.62;46.77;97709.59;5024649;28;20207;-73
2023/10/07 10:09:08;;;;;;;9.00;5.97;;;;;;;22.69;46.76;97702.81;5027879;28;20202;-72
2023/10/07 10:16:52;;;;;;;8.80;5.43;;;;;;;22.87;47.00;97692.53;5047953;28;20288;-72
2023/10/07 10:19:49;;;;;;;10.43;5.80;;;;;;;23.13;46.25;97678.78;5046582;28;20199;-75
2023/10/07 10:22:23;;;;;;;12.00;6.40;;;;;;;23.30;45.61;97674.66;5028982;28;20237;-78
2023/10/07 10:24:54;;;;;;;12.07;5.40;;;;;;;23.53;44.37;97680.63;5037628;28;20205;-73
2023/10/07 10:27:22;;;;;;;9.17;6.03;;;;;;;23.55;44.12;97679.53;5027631;28;20202;-72
2023/10/07 10:30:21;;;;;;;10.37;5.60;;;;;;;23.33;44.24;97661.19;5027733;28;20756;-76
2023/10/07 10:32:40;;;;;;;9.03;5.33;;;;;;;22.85;44.97;97641.63;5025724;28;20210;-76
2023/10/07 10:35:10;;;;;;;9.33;5.37;;;;;;;23.02;44.64;97660.34;5027102;28;20599;-72
2023/10/07 10:37:38;;;;;;;12.10;5.67;;;;;;;23.34;43.94;97660.25;5027642;28;20200;-76
2023/10/07 10:40:17;;;;;;;6.67;4.87;;;;;;;23.33;43.36;97656.75;5027982;28;20345;-85
2023/10/07 10:42:49;;;;;;;11.07;6.47;;;;;;;23.55;42.63;97653.09;5033186;28;20202;-83
2023/10/07 10:45:21;;;;;;;8.43;5.67;;;;;;;23.61;41.96;97622.59;5036930;28;20206;-85
2023/10/07 10:47:50;;;;;;;8.77;5.40;;;;;;;23.64;41.82;97633.75;5038431;28;20229;-82
2023/10/07 10:50:29;;;;;;;7.93;5.13;;;;;;;23.85;41.22;97629.19;5049338;28;20214;-74
2023/10/07 10:52:59;;;;;;;9.00;4.87;;;;;;;23.94;42.26;97628.38;5053636;28;20198;-77
2023/10/07 10:55:38;;;;;;;8.40;5.47;;;;;;;24.06;41.61;97613.22;5040148;28;20207;-73
2023/10/07 10:58:17;;;;;;;7.93;4.93;;;;;;;24.01;41.19;97613.59;5032885;28;20297;-77
2023/10/07 11:00:51;;;;;;;13.20;6.10;;;;;;;23.96;41.93;97592.03;5032783;28;20309;-73
2023/10/07 11:03:21;;;;;;;9.07;6.33;;;;;;;24.07;41.81;97605.13;5031695;28;20591;-72
2023/10/07 11:05:53;;;;;;;11.37;6.30;;;;;;;24.14;42.49;97602.75;5031847;28;20676;-75
2023/10/07 11:08:24;;;;;;;10.43;6.03;;;;;;;24.04;41.98;97570.19;5031674;28;20929;-76
2023/10/07 11:10:54;;;;;;;11.50;6.70;;;;;;;24.31;41.51;97599.41;5031013;28;20679;-73
2023/10/07 11:13:22;;;;;;;7.43;5.17;;;;;;;24.42;41.75;97590.47;5032784;28;20243;-73
2023/10/07 11:16:10;;;;;;;11.10;6.20;;;;;;;24.05;41.96;97590.38;5031557;28;20193;-74
2023/10/07 11:18:45;;;;;;;7.47;5.63;;;;;;;23.95;42.45;97582.41;5032148;28;20674;-73
2023/10/07 11:21:18;;;;;;;9.00;5.60;;;;;;;23.96;42.50;97581.44;5031610;28;20207;-74
2023/10/07 11:23:52;;;;;;;7.77;5.37;;;;;;;24.05;41.68;97579.81;5032680;28;20249;-76
2023/10/07 11:26:27;;;;;;;10.80;6.00;;;;;;;24.22;41.50;97574.63;5032697;28;20199;-72
2023/10/07 11:28:57;;;;;;;13.63;6.07;;;;;;;24.30;41.12;97581.84;5033029;28;20197;-72
2023/10/07 11:31:30;;;;;;;12.63;7.00;;;;;;;24.08;41.45;97566.28;5051328;28;20234;-72
2023/10/07 11:33:59;;;;;;;12.40;6.90;;;;;;;23.93;41.62;97506.78;5052913;28;20257;-72
2023/10/07 11:36:27;;;;;;;10.03;6.03;;;;;;;24.40;41.43;97560.66;5052297;28;20862;-72
2023/10/07 11:38:56;;;;;;;11.97;5.77;;;;;;;24.28;41.25;97545.91;5051437;28;20194;-73
2023/10/07 11:41:24;;;;;;;12.63;6.13;;;;;;;24.37;41.17;97550.34;5053749;28;20669;-73
2023/10/07 11:43:52;;;;;;;10.13;5.93;;;;;;;24.39;40.49;97543.09;5053354;28;20199;-73
2023/10/07 11:46:20;;;;;;;13.47;6.10;;;;;;;24.61;40.59;97546.22;5053120;28;20187;-72
2023/10/07 11:48:47;;;;;;;13.87;6.00;;;;;;;24.64;40.16;97523.91;5053199;28;20195;-77
2023/10/07 11:51:15;;;;;;;10.90;6.07;;;;;;;24.79;40.55;97535.75;5053603;28;20706;-74
2023/10/07 11:54:24;;;;;;;10.33;6.53;;;;;;;24.94;39.70;97531.63;5045688;28;20681;-73
2023/10/07 11:57:05;;;;;;;11.77;6.17;;;;;;;24.80;40.04;97535.59;5034225;28;20196;-82
2023/10/07 11:59:41;;;;;;;12.60;5.60;;;;;;;24.66;40.32;97529.91;5051779;28;20192;-83
2023/10/07 12:02:14;;;;;;;10.87;6.30;;;;;;;24.79;39.46;97527.81;5052586;28;20201;-83
2023/10/07 12:04:47;;;;;;;11.40;6.97;;;;;;;24.70;39.78;97488.91;5051981;28;20998;-84
2023/10/07 12:07:16;;;;;;;8.73;6.47;;;;;;;24.95;39.83;97525.34;5050991;28;20219;-84
2023/10/07 12:09:47;;;;;;;9.60;5.33;;;;;;;25.03;39.33;97525.44;5052010;28;20224;-75
2023/10/07 12:12:17;;;;;;;13.23;6.07;;;;;;;25.03;39.80;97522.81;5049801;28;20235;-87
2023/10/07 12:14:47;;;;;;;13.30;6.00;;;;;;;24.64;40.16;97524.75;5046194;28;20192;-81
2023/10/07 12:17:16;;;;;;;8.30;5.57;;;;;;;24.51;40.75;97515.44;5030105;28;20810;-84
2023/10/07 12:19:44;;;;;;;10.53;6.03;;;;;;;24.72;40.40;97518.72;5028180;28;20219;-84
2023/10/07 12:22:13;;;;;;;9.30;5.90;;;;;;;24.81;39.51;97509.94;5030705;28;20195;-77
2023/10/07 12:24:42;;;;;;;10.27;5.93;;;;;;;24.88;39.74;97511.84;5032792;28;20220;-86
2023/10/07 12:27:10;;;;;;;8.07;6.10;;;;;;;24.97;39.95;97503.03;5048365;28;20197;-86
2023/10/07 12:29:39;;;;;;;9.57;6.40;;;;;;;24.97;39.82;97504.84;5048491;28;20607;-75
2023/10/07 12:32:06;;;;;;;7.77;5.40;;;;;;;24.90;39.79;97490.50;5032195;28;20347;-82
2023/10/07 12:34:33;;;;;;;8.37;5.33;;;;;;;24.90;39.65;97496.63;5032310;28;20312;-81
2023/10/07 12:37:00;;;;;;;10.03;5.40;;;;;;;25.06;39.16;97493.34;5049579;28;20200;-84
2023/10/07 12:39:30;;;;;;;10.97;5.43;;;;;;;24.97;39.24;97488.94;5051980;28;20562;-83
2023/10/07 12:41:57;;;;;;;9.40;5.70;;;;;;;25.04;39.04;97487.34;5032214;28;20200;-81
2023/10/07 12:44:25;;;;;;;9.33;6.17;;;;;;;25.03;39.18;97485.69;5031589;28;20283;-82
2023/10/07 12:46:54;;;;;;;8.27;4.83;;;;;;;24.86;39.14;97478.53;5052234;28;20285;-79
2023/10/07 12:49:23;;;;;;;8.37;5.97;;;;;;;24.93;39.34;97477.81;5050635;28;20283;-79
2023/10/07 12:51:50;;;;;;;8.10;5.13;;;;;;;24.47;39.12;97450.50;5050905;28;20395;-77
2023/10/07 12:54:19;;;;;;;13.90;5.70;;;;;;;24.36;40.40;97482.50;5031217;28;20298;-79
2023/10/07 12:56:46;;;;;;;6.80;5.13;;;;;;;24.29;39.70;97455.75;5047953;28;20216;-77
2023/10/07 12:59:23;;;;;;;8.47;5.60;;;;;;;24.33;40.21;97470.38;5046588;28;20201;-79
2023/10/07 13:01:52;;;;;;;8.43;6.43;;;;;;;24.68;39.91;97459.06;5049444;28;20227;-75
2023/10/07 13:04:19;;;;;;;10.97;5.40;;;;;;;24.60;39.58;97461.63;5048339;28;20228;-82
2023/10/07 13:06:48;;;;;;;11.00;6.97;;;;;;;24.82;39.16;97458.59;5045381;28;20200;-73
2023/10/07 13:09:16;;;;;;;10.97;7.07;;;;;;;24.64;39.34;97436.50;5048428;28;20303;-81